Tonica, Illinois
Current Conditions -  °F | °C
As of 12:15 AM on Wednesday 26 Nov 2014 (Local Time) from KVYS Reporting Station
Clear Clear  
Wind Chill: 11°   Ceiling: Unl
Heat Index: 20°   Visibility: 10mi
Dew Point: 18°   Wind: 7mph
Humidity: 92%   Direction: 150°SSE
Pressure: 30.18"   Gusts: NA
Location:  41.22°N, 89.07°W
Report Text: KVYS 260615Z AUTO 15006KT 10SM CLR M06/M08 A3018 RMK AO2 T10651076
Loading
Personal Weather Stations






























Interactive Weather Map New forecast layout! Learn more

10-Day Weather Forecast

Advertisements
Track Severe Weather on mobile